Briefing drone pour Reignier-esery

Rechercher une autre localisation

Conditions de vol :


Nous sommes le : Mardi 02 mars 2021
Il est 19:51 UTC (20:51 LT)

Lever de soleil : 05:44 UTC (06:44 LT)
Coucher de soleil : 17:49 UTC (18:49 LT)

Météo

L'essentiel des conditions de vol

VIGILANCE MÉTÉO FRANCE - Haute-Savoie (74)
Pas de vigilances particulieres
METAR de LFLP
LFLP 021930Z AUTO 03002KT CAVOK 08/02 Q1031 NOSIG

Date d'émission: 02/03/2021
Heure d'émission: 19:30 UTC
Vent: 030° pour 2 KT (4 km/h)
Visibilité horizontale: > 10 km
Plafond : Plafond et visibilité OK (CAVOK)
Température: 8 °C
Point de rosée: 2 °C
Humidité: 66%
Pression (QNH): 1031 hPa
Conditions: Pas de changement dans les 2 heures (NOSIG)
TAF de LFLP
LFLP 020800Z 0209/0309 VRB03KT CAVOK

Conditions prévues :

Heure d'émission : Bulletin éffectué le 02 à 09:00 UTC
Prévision : Valide du 02 a 09:00 UTC au 03 a 09:00 UTC
Vent : Variable pour 3 KT (6 km/h)
Visibilité : > 10 km
WEBCAM POUR REIGNIER-ESERY

Réglementation

Voler en sécurité

CARTES AERONAUTIQUE 1/500.000
CARTES VAC (LFLP)
SUP AIP




Chargement des AIP...
NOTAM (REIGNIER-ESERY + Terrain à proximité / FIR )




Chargement des NOTAMS...
CONTACT PREFECTURE 74


Avertissement : Les données mises à disposition sont indicatives. Oxygène Drone ne pourra être tenu responsable de dégâts causés aux biens et aux personnes.